createdAt,value
2022-08-04T00:01:22.766Z,17.10
2022-08-04T00:11:31.614Z,18.20
2022-08-04T00:21:39.696Z,16.63
2022-08-04T00:31:56.258Z,17.48
2022-08-04T00:42:30.042Z,17.00
2022-08-04T00:52:43.309Z,15.18
2022-08-04T01:03:16.834Z,15.37
2022-08-04T01:13:43.331Z,14.17
2022-08-04T01:24:06.871Z,12.27
2022-08-04T01:34:14.600Z,13.57
2022-08-04T01:44:19.779Z,12.80
2022-08-04T01:54:24.718Z,15.38
2022-08-04T02:04:27.657Z,12.82
2022-08-04T02:14:45.683Z,10.33
2022-08-04T02:24:53.691Z,11.10
2022-08-04T02:35:04.850Z,13.52
2022-08-04T02:45:08.926Z,10.52
2022-08-04T02:55:13.738Z,13.07
2022-08-04T03:05:19.882Z,9.85
2022-08-04T03:15:51.430Z,9.88
2022-08-04T03:26:23.403Z,16.58
2022-08-04T03:37:12.821Z,15.60
2022-08-04T03:47:48.771Z,9.07
2022-08-04T03:58:22.155Z,13.35
2022-08-04T04:09:16.304Z,13.02
2022-08-04T04:19:52.526Z,12.77
2022-08-04T04:30:08.968Z,17.92
2022-08-04T04:40:29.952Z,20.80
2022-08-04T04:50:41.961Z,20.77
2022-08-04T05:01:01.388Z,14.93
2022-08-04T05:11:26.571Z,13.60
2022-08-04T05:21:39.090Z,13.32
2022-08-04T05:31:50.831Z,16.40
2022-08-04T05:41:58.481Z,20.95
2022-08-04T05:52:08.668Z,14.82
2022-08-04T06:02:16.906Z,18.52
2022-08-04T06:12:26.353Z,23.52
2022-08-04T06:22:32.111Z,18.38
2022-08-04T06:32:47.315Z,26.98
2022-08-04T06:42:52.797Z,27.55
2022-08-04T06:52:55.805Z,24.25
2022-08-04T07:03:01.101Z,16.45
2022-08-04T07:13:04.322Z,20.50
2022-08-04T07:33:12.287Z,17.38
2022-08-04T07:43:18.184Z,18.20
2022-08-04T07:53:55.136Z,21.92
2022-08-04T08:03:48.931Z,19.55
2022-08-04T08:13:52.369Z,23.38
2022-08-04T08:23:57.063Z,13.35
2022-08-04T08:34:00.615Z,11.63
2022-08-04T08:44:19.328Z,9.05
2022-08-04T08:55:06.469Z,16.98
2022-08-04T09:05:39.684Z,14.60
2022-08-04T09:15:54.026Z,14.50
2022-08-04T09:26:05.532Z,12.32
2022-08-04T09:36:14.868Z,13.23
2022-08-04T09:46:38.546Z,11.70
2022-08-04T09:56:51.970Z,9.68
2022-08-04T10:07:37.869Z,11.52
2022-08-04T10:17:54.318Z,11.20
2022-08-04T10:28:01.419Z,21.20
2022-08-04T10:38:13.433Z,17.15
2022-08-04T10:48:34.307Z,10.43
2022-08-04T10:58:47.650Z,14.82
2022-08-04T11:08:57.161Z,14.17
2022-08-04T11:19:16.455Z,18.33
2022-08-04T11:29:26.721Z,17.38
2022-08-04T11:39:36.224Z,9.30
2022-08-04T11:49:56.677Z,10.93
2022-08-04T12:00:07.508Z,8.65
2022-08-04T12:10:41.731Z,12.02
2022-08-04T12:20:50.694Z,6.78
2022-08-04T12:31:04.221Z,9.50
2022-08-04T12:41:12.818Z,7.10
2022-08-04T12:52:06.437Z,5.00
2022-08-04T13:02:09.627Z,7.05
2022-08-04T13:12:15.566Z,8.68
2022-08-04T13:22:27.753Z,7.43
2022-08-04T13:32:32.341Z,7.55
2022-08-04T13:42:38.434Z,10.20
2022-08-04T13:52:42.620Z,6.00
2022-08-04T14:02:51.556Z,9.70
2022-08-04T14:12:56.354Z,10.40
2022-08-04T14:23:02.259Z,7.75
2022-08-04T14:34:02.945Z,7.57
2022-08-04T14:43:31.719Z,6.68
2022-08-04T14:53:38.878Z,9.52
2022-08-04T15:03:49.981Z,8.52
2022-08-04T15:13:57.655Z,11.10
2022-08-04T15:24:02.018Z,5.65
2022-08-04T15:34:05.051Z,8.80
2022-08-04T15:44:28.559Z,5.97
2022-08-04T15:54:33.162Z,8.57
2022-08-04T16:04:37.806Z,8.13
2022-08-04T16:14:40.937Z,3.35
2022-08-04T16:24:54.567Z,6.63
2022-08-04T16:45:13.658Z,11.50
2022-08-04T16:55:17.178Z,11.85
2022-08-04T17:05:38.194Z,7.75
2022-08-04T17:15:48.927Z,6.85
2022-08-04T17:25:59.129Z,5.70
2022-08-04T17:36:04.217Z,7.75
2022-08-04T17:46:39.394Z,9.98
2022-08-04T17:56:52.331Z,4.68
2022-08-04T18:07:00.521Z,5.32
2022-08-04T18:17:03.741Z,5.10
2022-08-04T18:27:31.262Z,8.05
2022-08-04T18:38:05.983Z,5.35
2022-08-04T18:47:59.589Z,6.13
2022-08-04T19:08:34.622Z,7.00
2022-08-04T19:18:38.607Z,5.85
2022-08-04T19:28:43.077Z,7.50
2022-08-04T19:38:50.696Z,7.18
2022-08-04T19:48:59.797Z,10.70
2022-08-04T19:59:03.676Z,9.48
2022-08-04T20:29:40.103Z,9.50
2022-08-04T20:39:44.250Z,8.13
2022-08-04T20:49:48.708Z,14.70
2022-08-04T20:59:59.641Z,11.35
2022-08-04T21:10:05.597Z,16.63
2022-08-04T21:20:12.891Z,7.97
2022-08-04T21:30:52.261Z,13.30
2022-08-04T21:40:58.880Z,7.88
2022-08-04T21:51:55.713Z,12.60
2022-08-04T22:01:52.366Z,13.15
2022-08-04T22:11:59.083Z,11.25
2022-08-04T22:22:06.920Z,10.98
2022-08-04T22:32:17.049Z,11.45
2022-08-04T22:52:27.818Z,8.95
2022-08-04T23:02:34.904Z,14.65
2022-08-04T23:12:39.220Z,11.45
2022-08-04T23:22:45.934Z,12.05
2022-08-04T23:32:59.959Z,13.23
2022-08-04T23:43:16.859Z,11.40
2022-08-04T23:53:22.503Z,17.48
